sensor_id;sensor_type;location;lat;lon;timestamp;P1;durP1;ratioP1;P2;durP2;ratioP2
24261;SDS011;12385;51.412;5.540;2024-01-15T00:01:11;167.25;;;51.60;;
24261;SDS011;12385;51.412;5.540;2024-01-15T00:03:37;151.18;;;49.60;;
24261;SDS011;12385;51.412;5.540;2024-01-15T00:06:03;165.52;;;47.20;;
24261;SDS011;12385;51.412;5.540;2024-01-15T00:08:29;184.85;;;54.35;;
24261;SDS011;12385;51.412;5.540;2024-01-15T00:10:54;169.48;;;49.60;;
24261;SDS011;12385;51.412;5.540;2024-01-15T00:13:20;165.10;;;50.97;;
24261;SDS011;12385;51.412;5.540;2024-01-15T00:15:46;193.65;;;54.47;;
24261;SDS011;12385;51.412;5.540;2024-01-15T00:18:12;140.10;;;47.13;;
24261;SDS011;12385;51.412;5.540;2024-01-15T00:20:37;137.45;;;45.03;;
24261;SDS011;12385;51.412;5.540;2024-01-15T00:23:03;159.25;;;50.03;;
24261;SDS011;12385;51.412;5.540;2024-01-15T00:25:29;145.73;;;48.05;;
24261;SDS011;12385;51.412;5.540;2024-01-15T00:27:54;144.02;;;47.78;;
24261;SDS011;12385;51.412;5.540;2024-01-15T00:30:20;134.48;;;44.63;;
24261;SDS011;12385;51.412;5.540;2024-01-15T00:32:46;125.68;;;43.72;;
24261;SDS011;12385;51.412;5.540;2024-01-15T00:35:12;125.97;;;42.15;;
24261;SDS011;12385;51.412;5.540;2024-01-15T00:37:38;104.63;;;37.33;;
24261;SDS011;12385;51.412;5.540;2024-01-15T00:40:04;98.95;;;37.72;;
24261;SDS011;12385;51.412;5.540;2024-01-15T00:42:32;91.10;;;33.65;;
24261;SDS011;12385;51.412;5.540;2024-01-15T00:44:58;104.90;;;34.47;;
24261;SDS011;12385;51.412;5.540;2024-01-15T00:47:28;79.50;;;29.20;;
24261;SDS011;12385;51.412;5.540;2024-01-15T00:49:53;74.10;;;26.67;;
24261;SDS011;12385;51.412;5.540;2024-01-15T00:52:19;69.55;;;26.15;;
24261;SDS011;12385;51.412;5.540;2024-01-15T00:54:46;60.00;;;22.00;;
24261;SDS011;12385;51.412;5.540;2024-01-15T00:57:11;58.55;;;22.23;;
24261;SDS011;12385;51.412;5.540;2024-01-15T00:59:37;53.95;;;18.52;;
24261;SDS011;12385;51.412;5.540;2024-01-15T01:02:03;51.65;;;16.60;;
24261;SDS011;12385;51.412;5.540;2024-01-15T01:04:29;43.72;;;15.75;;
24261;SDS011;12385;51.412;5.540;2024-01-15T01:06:55;29.90;;;11.15;;
24261;SDS011;12385;51.412;5.540;2024-01-15T01:09:20;36.78;;;12.38;;
24261;SDS011;12385;51.412;5.540;2024-01-15T01:11:46;33.95;;;12.95;;
24261;SDS011;12385;51.412;5.540;2024-01-15T01:14:11;36.33;;;11.50;;
24261;SDS011;12385;51.412;5.540;2024-01-15T01:16:37;30.92;;;10.38;;
24261;SDS011;12385;51.412;5.540;2024-01-15T01:19:04;26.42;;;9.65;;
24261;SDS011;12385;51.412;5.540;2024-01-15T01:21:31;34.67;;;10.80;;
24261;SDS011;12385;51.412;5.540;2024-01-15T01:23:56;28.80;;;11.00;;
24261;SDS011;12385;51.412;5.540;2024-01-15T01:26:22;31.58;;;11.15;;
24261;SDS011;12385;51.412;5.540;2024-01-15T01:28:48;32.13;;;12.25;;
24261;SDS011;12385;51.412;5.540;2024-01-15T01:31:16;38.15;;;14.65;;
24261;SDS011;12385;51.412;5.540;2024-01-15T01:33:41;40.97;;;17.90;;
24261;SDS011;12385;51.412;5.540;2024-01-15T01:36:10;47.55;;;19.15;;
24261;SDS011;12385;51.412;5.540;2024-01-15T01:38:36;46.55;;;19.05;;
24261;SDS011;12385;51.412;5.540;2024-01-15T01:41:02;59.28;;;23.48;;
24261;SDS011;12385;51.412;5.540;2024-01-15T01:43:28;51.15;;;22.42;;
24261;SDS011;12385;51.412;5.540;2024-01-15T01:45:54;48.83;;;21.65;;
24261;SDS011;12385;51.412;5.540;2024-01-15T01:48:23;46.05;;;21.33;;
24261;SDS011;12385;51.412;5.540;2024-01-15T01:50:52;55.53;;;23.25;;
24261;SDS011;12385;51.412;5.540;2024-01-15T01:55:46;49.95;;;20.88;;
24261;SDS011;12385;51.412;5.540;2024-01-15T01:58:13;49.80;;;21.52;;
24261;SDS011;12385;51.412;5.540;2024-01-15T02:00:41;50.30;;;23.10;;
24261;SDS011;12385;51.412;5.540;2024-01-15T02:03:08;50.28;;;24.05;;
24261;SDS011;12385;51.412;5.540;2024-01-15T02:05:33;62.53;;;26.40;;
24261;SDS011;12385;51.412;5.540;2024-01-15T02:08:00;58.85;;;26.65;;
24261;SDS011;12385;51.412;5.540;2024-01-15T02:10:26;71.60;;;28.98;;
24261;SDS011;12385;51.412;5.540;2024-01-15T02:12:51;60.22;;;26.13;;
24261;SDS011;12385;51.412;5.540;2024-01-15T02:15:18;51.92;;;22.58;;
24261;SDS011;12385;51.412;5.540;2024-01-15T02:17:56;64.50;;;27.23;;
24261;SDS011;12385;51.412;5.540;2024-01-15T02:20:24;62.25;;;26.23;;
24261;SDS011;12385;51.412;5.540;2024-01-15T02:22:50;71.93;;;27.98;;
24261;SDS011;12385;51.412;5.540;2024-01-15T02:25:16;62.45;;;26.75;;
24261;SDS011;12385;51.412;5.540;2024-01-15T02:27:42;56.80;;;24.85;;
24261;SDS011;12385;51.412;5.540;2024-01-15T02:30:12;48.88;;;22.70;;
24261;SDS011;12385;51.412;5.540;2024-01-15T02:32:38;46.22;;;21.90;;
24261;SDS011;12385;51.412;5.540;2024-01-15T02:35:04;62.28;;;23.23;;
24261;SDS011;12385;51.412;5.540;2024-01-15T02:37:30;52.38;;;21.48;;
24261;SDS011;12385;51.412;5.540;2024-01-15T02:39:55;42.80;;;18.48;;
24261;SDS011;12385;51.412;5.540;2024-01-15T02:42:21;41.25;;;17.50;;
24261;SDS011;12385;51.412;5.540;2024-01-15T02:44:47;41.65;;;17.95;;
24261;SDS011;12385;51.412;5.540;2024-01-15T02:47:13;37.95;;;15.07;;
24261;SDS011;12385;51.412;5.540;2024-01-15T02:49:41;27.95;;;13.18;;
24261;SDS011;12385;51.412;5.540;2024-01-15T02:52:07;35.28;;;13.45;;
24261;SDS011;12385;51.412;5.540;2024-01-15T02:54:32;29.98;;;12.00;;
24261;SDS011;12385;51.412;5.540;2024-01-15T02:56:58;29.23;;;11.52;;
24261;SDS011;12385;51.412;5.540;2024-01-15T02:59:24;31.98;;;12.30;;
24261;SDS011;12385;51.412;5.540;2024-01-15T03:01:50;26.95;;;10.73;;
24261;SDS011;12385;51.412;5.540;2024-01-15T03:04:18;27.13;;;10.55;;
24261;SDS011;12385;51.412;5.540;2024-01-15T03:06:47;24.40;;;10.07;;
24261;SDS011;12385;51.412;5.540;2024-01-15T03:09:12;26.10;;;10.30;;
24261;SDS011;12385;51.412;5.540;2024-01-15T03:11:38;26.27;;;10.93;;
24261;SDS011;12385;51.412;5.540;2024-01-15T03:14:04;31.45;;;12.02;;
24261;SDS011;12385;51.412;5.540;2024-01-15T03:16:30;28.63;;;12.73;;
24261;SDS011;12385;51.412;5.540;2024-01-15T03:18:56;28.23;;;12.85;;
24261;SDS011;12385;51.412;5.540;2024-01-15T03:21:22;37.25;;;13.63;;
24261;SDS011;12385;51.412;5.540;2024-01-15T03:23:48;33.20;;;15.40;;
24261;SDS011;12385;51.412;5.540;2024-01-15T03:26:18;34.33;;;14.38;;
24261;SDS011;12385;51.412;5.540;2024-01-15T03:28:47;33.60;;;15.38;;
24261;SDS011;12385;51.412;5.540;2024-01-15T03:31:12;33.63;;;15.03;;
24261;SDS011;12385;51.412;5.540;2024-01-15T03:33:38;39.05;;;16.88;;
24261;SDS011;12385;51.412;5.540;2024-01-15T03:36:07;41.63;;;17.20;;
24261;SDS011;12385;51.412;5.540;2024-01-15T03:38:33;40.42;;;17.08;;
24261;SDS011;12385;51.412;5.540;2024-01-15T03:41:00;35.67;;;16.27;;
24261;SDS011;12385;51.412;5.540;2024-01-15T03:43:26;44.55;;;16.73;;
24261;SDS011;12385;51.412;5.540;2024-01-15T03:45:52;34.65;;;14.55;;
24261;SDS011;12385;51.412;5.540;2024-01-15T03:48:18;39.50;;;14.50;;
24261;SDS011;12385;51.412;5.540;2024-01-15T03:50:43;34.00;;;13.75;;
24261;SDS011;12385;51.412;5.540;2024-01-15T03:53:11;36.38;;;13.68;;
24261;SDS011;12385;51.412;5.540;2024-01-15T03:55:37;36.30;;;13.05;;
24261;SDS011;12385;51.412;5.540;2024-01-15T03:58:02;31.27;;;10.23;;
24261;SDS011;12385;51.412;5.540;2024-01-15T04:00:30;30.63;;;10.73;;
24261;SDS011;12385;51.412;5.540;2024-01-15T04:02:55;37.42;;;12.80;;
24261;SDS011;12385;51.412;5.540;2024-01-15T04:05:21;23.45;;;8.93;;
24261;SDS011;12385;51.412;5.540;2024-01-15T04:07:46;29.15;;;9.50;;
24261;SDS011;12385;51.412;5.540;2024-01-15T04:10:12;22.40;;;8.20;;
24261;SDS011;12385;51.412;5.540;2024-01-15T04:12:38;33.20;;;8.20;;
24261;SDS011;12385;51.412;5.540;2024-01-15T04:15:04;26.45;;;7.53;;
24261;SDS011;12385;51.412;5.540;2024-01-15T04:17:29;15.45;;;5.60;;
24261;SDS011;12385;51.412;5.540;2024-01-15T04:19:55;18.52;;;5.00;;
24261;SDS011;12385;51.412;5.540;2024-01-15T04:22:21;20.98;;;5.03;;
24261;SDS011;12385;51.412;5.540;2024-01-15T04:24:46;16.52;;;4.13;;
24261;SDS011;12385;51.412;5.540;2024-01-15T04:27:12;21.08;;;4.03;;
24261;SDS011;12385;51.412;5.540;2024-01-15T04:29:38;19.10;;;3.40;;
24261;SDS011;12385;51.412;5.540;2024-01-15T04:32:05;21.33;;;3.47;;
24261;SDS011;12385;51.412;5.540;2024-01-15T04:34:31;16.83;;;2.55;;
24261;SDS011;12385;51.412;5.540;2024-01-15T04:36:56;11.40;;;1.80;;
24261;SDS011;12385;51.412;5.540;2024-01-15T04:39:22;17.25;;;2.63;;
24261;SDS011;12385;51.412;5.540;2024-01-15T04:41:48;15.70;;;2.38;;
24261;SDS011;12385;51.412;5.540;2024-01-15T04:44:17;17.67;;;2.25;;
24261;SDS011;12385;51.412;5.540;2024-01-15T04:46:43;14.82;;;2.03;;
24261;SDS011;12385;51.412;5.540;2024-01-15T04:49:09;12.45;;;2.28;;
24261;SDS011;12385;51.412;5.540;2024-01-15T04:51:34;18.00;;;2.40;;
24261;SDS011;12385;51.412;5.540;2024-01-15T04:54:00;13.70;;;2.00;;
24261;SDS011;12385;51.412;5.540;2024-01-15T04:56:26;14.95;;;1.98;;
24261;SDS011;12385;51.412;5.540;2024-01-15T04:58:52;12.27;;;1.85;;
24261;SDS011;12385;51.412;5.540;2024-01-15T05:01:17;17.38;;;2.22;;
24261;SDS011;12385;51.412;5.540;2024-01-15T05:03:43;10.88;;;1.70;;
24261;SDS011;12385;51.412;5.540;2024-01-15T05:06:10;9.60;;;1.80;;
24261;SDS011;12385;51.412;5.540;2024-01-15T05:08:36;12.65;;;1.98;;
24261;SDS011;12385;51.412;5.540;2024-01-15T05:11:01;8.30;;;2.00;;
24261;SDS011;12385;51.412;5.540;2024-01-15T05:13:27;15.18;;;2.10;;
24261;SDS011;12385;51.412;5.540;2024-01-15T05:15:53;12.05;;;2.30;;
24261;SDS011;12385;51.412;5.540;2024-01-15T05:18:18;13.65;;;2.25;;
24261;SDS011;12385;51.412;5.540;2024-01-15T05:20:47;10.60;;;2.20;;
24261;SDS011;12385;51.412;5.540;2024-01-15T05:23:13;9.77;;;2.30;;
24261;SDS011;12385;51.412;5.540;2024-01-15T05:25:39;10.32;;;2.42;;
24261;SDS011;12385;51.412;5.540;2024-01-15T05:28:05;14.45;;;2.90;;
24261;SDS011;12385;51.412;5.540;2024-01-15T05:30:31;12.73;;;2.53;;
24261;SDS011;12385;51.412;5.540;2024-01-15T05:32:57;13.57;;;2.67;;
24261;SDS011;12385;51.412;5.540;2024-01-15T05:35:25;12.35;;;2.60;;
24261;SDS011;12385;51.412;5.540;2024-01-15T05:37:50;11.88;;;2.10;;
24261;SDS011;12385;51.412;5.540;2024-01-15T05:40:16;16.00;;;2.47;;
24261;SDS011;12385;51.412;5.540;2024-01-15T05:42:42;13.27;;;2.85;;
24261;SDS011;12385;51.412;5.540;2024-01-15T05:45:07;12.13;;;2.92;;
24261;SDS011;12385;51.412;5.540;2024-01-15T05:47:33;13.57;;;3.20;;
24261;SDS011;12385;51.412;5.540;2024-01-15T05:50:00;22.63;;;4.47;;
24261;SDS011;12385;51.412;5.540;2024-01-15T05:52:26;33.42;;;5.78;;
24261;SDS011;12385;51.412;5.540;2024-01-15T05:54:51;26.85;;;7.72;;
24261;SDS011;12385;51.412;5.540;2024-01-15T05:57:17;35.72;;;9.02;;
24261;SDS011;12385;51.412;5.540;2024-01-15T05:59:44;29.95;;;9.25;;
24261;SDS011;12385;51.412;5.540;2024-01-15T06:02:12;35.65;;;10.77;;
24261;SDS011;12385;51.412;5.540;2024-01-15T06:04:37;44.40;;;13.60;;
24261;SDS011;12385;51.412;5.540;2024-01-15T06:07:03;42.25;;;14.60;;
24261;SDS011;12385;51.412;5.540;2024-01-15T06:09:29;45.72;;;15.10;;
24261;SDS011;12385;51.412;5.540;2024-01-15T06:11:56;50.92;;;16.13;;
24261;SDS011;12385;51.412;5.540;2024-01-15T06:14:22;40.20;;;13.77;;
24261;SDS011;12385;51.412;5.540;2024-01-15T06:16:48;39.47;;;13.98;;
24261;SDS011;12385;51.412;5.540;2024-01-15T06:19:16;30.80;;;12.50;;
24261;SDS011;12385;51.412;5.540;2024-01-15T06:21:41;30.33;;;13.10;;
24261;SDS011;12385;51.412;5.540;2024-01-15T06:24:07;24.80;;;10.00;;
24261;SDS011;12385;51.412;5.540;2024-01-15T06:26:35;31.55;;;10.77;;
24261;SDS011;12385;51.412;5.540;2024-01-15T06:29:00;25.08;;;9.65;;
24261;SDS011;12385;51.412;5.540;2024-01-15T06:31:28;30.83;;;9.80;;
24261;SDS011;12385;51.412;5.540;2024-01-15T06:33:53;28.70;;;9.85;;
24261;SDS011;12385;51.412;5.540;2024-01-15T06:36:22;23.52;;;9.07;;
24261;SDS011;12385;51.412;5.540;2024-01-15T06:38:48;28.15;;;10.32;;
24261;SDS011;12385;51.412;5.540;2024-01-15T06:41:17;32.83;;;11.60;;
24261;SDS011;12385;51.412;5.540;2024-01-15T06:43:43;33.75;;;13.85;;
24261;SDS011;12385;51.412;5.540;2024-01-15T06:46:08;42.30;;;14.73;;
24261;SDS011;12385;51.412;5.540;2024-01-15T06:48:34;35.92;;;14.60;;
24261;SDS011;12385;51.412;5.540;2024-01-15T06:51:00;44.15;;;17.95;;
24261;SDS011;12385;51.412;5.540;2024-01-15T06:53:26;36.20;;;18.70;;
24261;SDS011;12385;51.412;5.540;2024-01-15T06:55:51;44.90;;;20.55;;
24261;SDS011;12385;51.412;5.540;2024-01-15T06:58:17;45.13;;;21.42;;
24261;SDS011;12385;51.412;5.540;2024-01-15T07:00:42;51.83;;;23.20;;
24261;SDS011;12385;51.412;5.540;2024-01-15T07:03:08;45.50;;;23.35;;
24261;SDS011;12385;51.412;5.540;2024-01-15T07:05:34;53.22;;;22.98;;
24261;SDS011;12385;51.412;5.540;2024-01-15T07:07:59;43.80;;;21.75;;
24261;SDS011;12385;51.412;5.540;2024-01-15T07:10:25;40.20;;;19.80;;
24261;SDS011;12385;51.412;5.540;2024-01-15T07:12:51;39.22;;;18.50;;
24261;SDS011;12385;51.412;5.540;2024-01-15T07:15:17;36.92;;;18.70;;
24261;SDS011;12385;51.412;5.540;2024-01-15T07:17:42;29.02;;;15.93;;
24261;SDS011;12385;51.412;5.540;2024-01-15T07:20:09;27.23;;;14.98;;
24261;SDS011;12385;51.412;5.540;2024-01-15T07:22:35;27.73;;;14.35;;
24261;SDS011;12385;51.412;5.540;2024-01-15T07:25:02;28.83;;;14.13;;
24261;SDS011;12385;51.412;5.540;2024-01-15T07:27:30;24.87;;;12.17;;
24261;SDS011;12385;51.412;5.540;2024-01-15T07:29:57;14.52;;;8.80;;
24261;SDS011;12385;51.412;5.540;2024-01-15T07:32:23;19.80;;;9.10;;
24261;SDS011;12385;51.412;5.540;2024-01-15T07:34:49;13.77;;;8.23;;
24261;SDS011;12385;51.412;5.540;2024-01-15T07:37:18;20.63;;;11.60;;
24261;SDS011;12385;51.412;5.540;2024-01-15T07:39:43;14.75;;;7.82;;
24261;SDS011;12385;51.412;5.540;2024-01-15T07:42:17;13.27;;;7.30;;
24261;SDS011;12385;51.412;5.540;2024-01-15T07:44:43;11.35;;;7.13;;
24261;SDS011;12385;51.412;5.540;2024-01-15T07:47:10;11.40;;;7.10;;
24261;SDS011;12385;51.412;5.540;2024-01-15T07:49:36;12.02;;;7.05;;
24261;SDS011;12385;51.412;5.540;2024-01-15T07:52:02;11.38;;;7.35;;
24261;SDS011;12385;51.412;5.540;2024-01-15T07:54:30;12.15;;;7.38;;
24261;SDS011;12385;51.412;5.540;2024-01-15T07:56:57;14.13;;;8.15;;
24261;SDS011;12385;51.412;5.540;2024-01-15T07:59:24;15.85;;;8.40;;
24261;SDS011;12385;51.412;5.540;2024-01-15T08:01:50;15.27;;;9.07;;
24261;SDS011;12385;51.412;5.540;2024-01-15T08:04:16;14.40;;;9.23;;
24261;SDS011;12385;51.412;5.540;2024-01-15T08:06:42;15.52;;;9.93;;
24261;SDS011;12385;51.412;5.540;2024-01-15T08:09:08;14.60;;;9.23;;
24261;SDS011;12385;51.412;5.540;2024-01-15T08:11:34;12.57;;;8.75;;
24261;SDS011;12385;51.412;5.540;2024-01-15T08:14:00;16.63;;;10.05;;
24261;SDS011;12385;51.412;5.540;2024-01-15T08:16:26;17.77;;;9.35;;
24261;SDS011;12385;51.412;5.540;2024-01-15T08:18:52;16.65;;;9.48;;
24261;SDS011;12385;51.412;5.540;2024-01-15T08:21:19;13.13;;;7.68;;
24261;SDS011;12385;51.412;5.540;2024-01-15T08:23:46;17.33;;;8.27;;
24261;SDS011;12385;51.412;5.540;2024-01-15T08:26:12;16.33;;;8.10;;
24261;SDS011;12385;51.412;5.540;2024-01-15T08:28:38;13.15;;;8.43;;
24261;SDS011;12385;51.412;5.540;2024-01-15T08:31:03;13.85;;;8.30;;
24261;SDS011;12385;51.412;5.540;2024-01-15T08:33:29;13.77;;;8.38;;
24261;SDS011;12385;51.412;5.540;2024-01-15T08:35:55;17.55;;;8.77;;
24261;SDS011;12385;51.412;5.540;2024-01-15T08:38:21;12.57;;;8.70;;
24261;SDS011;12385;51.412;5.540;2024-01-15T08:40:46;13.43;;;9.98;;
24261;SDS011;12385;51.412;5.540;2024-01-15T08:43:13;12.93;;;7.22;;
24261;SDS011;12385;51.412;5.540;2024-01-15T08:45:39;21.35;;;10.13;;
24261;SDS011;12385;51.412;5.540;2024-01-15T08:48:04;12.48;;;8.40;;
24261;SDS011;12385;51.412;5.540;2024-01-15T08:50:31;12.73;;;7.15;;
24261;SDS011;12385;51.412;5.540;2024-01-15T08:52:57;6.43;;;4.30;;
24261;SDS011;12385;51.412;5.540;2024-01-15T08:55:23;9.15;;;4.22;;
24261;SDS011;12385;51.412;5.540;2024-01-15T08:57:49;5.93;;;3.65;;
24261;SDS011;12385;51.412;5.540;2024-01-15T09:00:16;9.00;;;2.60;;
24261;SDS011;12385;51.412;5.540;2024-01-15T09:02:42;6.95;;;2.45;;
24261;SDS011;12385;51.412;5.540;2024-01-15T09:05:08;6.30;;;2.03;;
24261;SDS011;12385;51.412;5.540;2024-01-15T09:07:34;5.35;;;2.25;;
24261;SDS011;12385;51.412;5.540;2024-01-15T09:10:00;7.50;;;2.15;;
24261;SDS011;12385;51.412;5.540;2024-01-15T09:12:27;5.40;;;1.23;;
24261;SDS011;12385;51.412;5.540;2024-01-15T09:14:53;11.63;;;1.63;;
24261;SDS011;12385;51.412;5.540;2024-01-15T09:17:21;5.88;;;1.40;;
24261;SDS011;12385;51.412;5.540;2024-01-15T09:19:50;6.35;;;1.25;;
24261;SDS011;12385;51.412;5.540;2024-01-15T09:22:16;3.80;;;1.10;;
24261;SDS011;12385;51.412;5.540;2024-01-15T09:24:46;7.88;;;1.52;;
24261;SDS011;12385;51.412;5.540;2024-01-15T09:27:12;6.30;;;1.25;;
24261;SDS011;12385;51.412;5.540;2024-01-15T09:29:38;7.68;;;1.50;;
24261;SDS011;12385;51.412;5.540;2024-01-15T09:32:06;6.25;;;1.40;;
24261;SDS011;12385;51.412;5.540;2024-01-15T09:34:33;7.07;;;1.60;;
24261;SDS011;12385;51.412;5.540;2024-01-15T09:36:59;12.52;;;1.92;;
24261;SDS011;12385;51.412;5.540;2024-01-15T09:39:25;9.18;;;2.10;;
24261;SDS011;12385;51.412;5.540;2024-01-15T09:41:52;6.32;;;2.15;;
24261;SDS011;12385;51.412;5.540;2024-01-15T09:44:19;5.22;;;1.80;;
24261;SDS011;12385;51.412;5.540;2024-01-15T09:46:46;9.30;;;2.10;;
24261;SDS011;12385;51.412;5.540;2024-01-15T09:49:18;3.83;;;1.60;;
24261;SDS011;12385;51.412;5.540;2024-01-15T09:51:46;8.40;;;2.00;;
24261;SDS011;12385;51.412;5.540;2024-01-15T09:54:12;7.68;;;1.80;;
24261;SDS011;12385;51.412;5.540;2024-01-15T09:56:41;6.65;;;1.75;;
24261;SDS011;12385;51.412;5.540;2024-01-15T09:59:17;6.40;;;2.10;;
24261;SDS011;12385;51.412;5.540;2024-01-15T10:01:44;8.63;;;2.50;;
24261;SDS011;12385;51.412;5.540;2024-01-15T10:04:13;9.50;;;3.35;;
24261;SDS011;12385;51.412;5.540;2024-01-15T10:06:43;10.27;;;3.28;;
24261;SDS011;12385;51.412;5.540;2024-01-15T10:09:12;6.22;;;3.58;;
24261;SDS011;12385;51.412;5.540;2024-01-15T10:11:42;9.48;;;3.95;;
24261;SDS011;12385;51.412;5.540;2024-01-15T10:14:08;7.07;;;4.50;;
24261;SDS011;12385;51.412;5.540;2024-01-15T10:16:37;9.25;;;4.75;;
24261;SDS011;12385;51.412;5.540;2024-01-15T10:19:05;8.85;;;5.00;;
24261;SDS011;12385;51.412;5.540;2024-01-15T10:21:32;7.47;;;5.45;;
24261;SDS011;12385;51.412;5.540;2024-01-15T10:24:01;10.35;;;5.10;;
24261;SDS011;12385;51.412;5.540;2024-01-15T10:26:30;8.15;;;4.55;;
24261;SDS011;12385;51.412;5.540;2024-01-15T10:29:00;19.10;;;5.20;;
24261;SDS011;12385;51.412;5.540;2024-01-15T10:31:26;14.18;;;4.93;;
24261;SDS011;12385;51.412;5.540;2024-01-15T10:33:52;10.30;;;5.03;;
24261;SDS011;12385;51.412;5.540;2024-01-15T10:36:18;11.98;;;4.90;;
24261;SDS011;12385;51.412;5.540;2024-01-15T10:38:46;14.98;;;5.97;;
24261;SDS011;12385;51.412;5.540;2024-01-15T10:41:18;12.25;;;6.13;;
24261;SDS011;12385;51.412;5.540;2024-01-15T10:43:44;12.23;;;6.85;;
24261;SDS011;12385;51.412;5.540;2024-01-15T10:46:12;11.32;;;6.75;;
24261;SDS011;12385;51.412;5.540;2024-01-15T10:48:38;11.98;;;7.15;;
24261;SDS011;12385;51.412;5.540;2024-01-15T10:51:04;13.75;;;6.60;;
24261;SDS011;12385;51.412;5.540;2024-01-15T10:53:35;15.38;;;7.25;;
24261;SDS011;12385;51.412;5.540;2024-01-15T10:56:04;12.20;;;7.13;;
24261;SDS011;12385;51.412;5.540;2024-01-15T10:58:31;12.77;;;7.85;;
24261;SDS011;12385;51.412;5.540;2024-01-15T11:00:58;18.70;;;8.20;;
24261;SDS011;12385;51.412;5.540;2024-01-15T11:03:24;16.55;;;8.23;;
24261;SDS011;12385;51.412;5.540;2024-01-15T11:05:50;16.75;;;8.50;;
24261;SDS011;12385;51.412;5.540;2024-01-15T11:08:18;24.42;;;9.48;;
24261;SDS011;12385;51.412;5.540;2024-01-15T11:10:48;23.10;;;10.35;;
24261;SDS011;12385;51.412;5.540;2024-01-15T11:16:04;22.80;;;9.88;;
24261;SDS011;12385;51.412;5.540;2024-01-15T11:18:34;20.77;;;8.68;;
24261;SDS011;12385;51.412;5.540;2024-01-15T11:23:48;15.15;;;6.32;;
24261;SDS011;12385;51.412;5.540;2024-01-15T11:29:05;9.32;;;4.90;;
24261;SDS011;12385;51.412;5.540;2024-01-15T11:34:04;8.70;;;4.20;;
24261;SDS011;12385;51.412;5.540;2024-01-15T11:41:56;7.40;;;3.05;;
24261;SDS011;12385;51.412;5.540;2024-01-15T11:44:23;6.32;;;3.35;;
24261;SDS011;12385;51.412;5.540;2024-01-15T11:46:58;7.78;;;3.00;;
24261;SDS011;12385;51.412;5.540;2024-01-15T11:52:12;8.38;;;2.50;;
24261;SDS011;12385;51.412;5.540;2024-01-15T11:57:37;5.18;;;2.70;;
24261;SDS011;12385;51.412;5.540;2024-01-15T12:00:04;9.18;;;4.18;;
24261;SDS011;12385;51.412;5.540;2024-01-15T12:02:32;6.57;;;3.83;;
24261;SDS011;12385;51.412;5.540;2024-01-15T12:04:58;11.60;;;3.72;;
24261;SDS011;12385;51.412;5.540;2024-01-15T12:07:23;7.55;;;3.50;;
24261;SDS011;12385;51.412;5.540;2024-01-15T12:09:49;10.07;;;3.53;;
24261;SDS011;12385;51.412;5.540;2024-01-15T12:12:22;9.48;;;3.50;;
24261;SDS011;12385;51.412;5.540;2024-01-15T12:14:53;7.10;;;3.40;;
24261;SDS011;12385;51.412;5.540;2024-01-15T12:17:19;6.22;;;3.22;;
24261;SDS011;12385;51.412;5.540;2024-01-15T12:19:45;7.85;;;3.05;;
24261;SDS011;12385;51.412;5.540;2024-01-15T12:22:11;7.65;;;3.20;;
24261;SDS011;12385;51.412;5.540;2024-01-15T12:24:37;5.30;;;2.95;;
24261;SDS011;12385;51.412;5.540;2024-01-15T12:27:03;11.93;;;4.03;;
24261;SDS011;12385;51.412;5.540;2024-01-15T12:29:30;9.52;;;4.20;;
24261;SDS011;12385;51.412;5.540;2024-01-15T12:31:56;7.70;;;3.60;;
24261;SDS011;12385;51.412;5.540;2024-01-15T12:34:22;4.85;;;3.63;;
24261;SDS011;12385;51.412;5.540;2024-01-15T12:36:48;6.63;;;2.50;;
24261;SDS011;12385;51.412;5.540;2024-01-15T12:39:16;6.03;;;2.28;;
24261;SDS011;12385;51.412;5.540;2024-01-15T12:41:41;7.15;;;2.90;;
24261;SDS011;12385;51.412;5.540;2024-01-15T12:44:07;9.07;;;3.05;;
24261;SDS011;12385;51.412;5.540;2024-01-15T12:46:33;6.18;;;2.53;;
24261;SDS011;12385;51.412;5.540;2024-01-15T12:48:59;5.43;;;2.60;;
24261;SDS011;12385;51.412;5.540;2024-01-15T12:51:25;7.90;;;2.50;;
24261;SDS011;12385;51.412;5.540;2024-01-15T12:53:52;6.88;;;2.65;;
24261;SDS011;12385;51.412;5.540;2024-01-15T12:56:18;5.95;;;2.45;;
24261;SDS011;12385;51.412;5.540;2024-01-15T12:58:46;5.43;;;1.98;;
24261;SDS011;12385;51.412;5.540;2024-01-15T13:01:12;3.17;;;1.67;;
24261;SDS011;12385;51.412;5.540;2024-01-15T13:03:42;4.28;;;1.73;;
24261;SDS011;12385;51.412;5.540;2024-01-15T13:06:07;4.18;;;1.63;;
24261;SDS011;12385;51.412;5.540;2024-01-15T13:08:33;4.97;;;2.47;;
24261;SDS011;12385;51.412;5.540;2024-01-15T13:10:59;3.90;;;1.88;;
24261;SDS011;12385;51.412;5.540;2024-01-15T13:13:25;5.60;;;2.13;;
24261;SDS011;12385;51.412;5.540;2024-01-15T13:15:51;3.67;;;1.90;;
24261;SDS011;12385;51.412;5.540;2024-01-15T13:18:16;7.13;;;2.90;;
24261;SDS011;12385;51.412;5.540;2024-01-15T13:20:42;4.07;;;2.83;;
24261;SDS011;12385;51.412;5.540;2024-01-15T13:23:08;11.65;;;3.65;;
24261;SDS011;12385;51.412;5.540;2024-01-15T13:25:35;6.53;;;3.95;;
24261;SDS011;12385;51.412;5.540;2024-01-15T13:28:03;8.55;;;4.80;;
24261;SDS011;12385;51.412;5.540;2024-01-15T13:30:30;8.27;;;5.13;;
24261;SDS011;12385;51.412;5.540;2024-01-15T13:32:56;8.98;;;4.68;;
24261;SDS011;12385;51.412;5.540;2024-01-15T13:35:22;9.07;;;4.80;;
24261;SDS011;12385;51.412;5.540;2024-01-15T13:37:48;6.82;;;3.95;;
24261;SDS011;12385;51.412;5.540;2024-01-15T13:40:16;8.18;;;3.55;;
24261;SDS011;12385;51.412;5.540;2024-01-15T13:42:45;8.43;;;3.25;;
24261;SDS011;12385;51.412;5.540;2024-01-15T13:45:12;5.50;;;2.65;;
24261;SDS011;12385;51.412;5.540;2024-01-15T13:47:41;7.75;;;3.25;;
24261;SDS011;12385;51.412;5.540;2024-01-15T13:50:09;5.30;;;3.13;;
24261;SDS011;12385;51.412;5.540;2024-01-15T13:52:35;7.93;;;3.65;;
24261;SDS011;12385;51.412;5.540;2024-01-15T13:55:01;8.70;;;5.40;;
24261;SDS011;12385;51.412;5.540;2024-01-15T13:57:27;7.75;;;5.28;;
24261;SDS011;12385;51.412;5.540;2024-01-15T13:59:52;8.60;;;5.18;;
24261;SDS011;12385;51.412;5.540;2024-01-15T14:02:18;7.82;;;5.30;;
24261;SDS011;12385;51.412;5.540;2024-01-15T14:04:46;12.27;;;6.05;;
24261;SDS011;12385;51.412;5.540;2024-01-15T14:07:12;6.90;;;4.97;;
24261;SDS011;12385;51.412;5.540;2024-01-15T14:09:38;10.65;;;6.90;;
24261;SDS011;12385;51.412;5.540;2024-01-15T14:12:04;12.00;;;6.20;;
24261;SDS011;12385;51.412;5.540;2024-01-15T14:14:31;10.15;;;5.57;;
24261;SDS011;12385;51.412;5.540;2024-01-15T14:16:56;11.27;;;5.78;;
24261;SDS011;12385;51.412;5.540;2024-01-15T14:19:22;12.70;;;5.75;;
24261;SDS011;12385;51.412;5.540;2024-01-15T14:21:48;12.00;;;5.60;;
24261;SDS011;12385;51.412;5.540;2024-01-15T14:24:15;15.93;;;6.35;;
24261;SDS011;12385;51.412;5.540;2024-01-15T14:26:42;10.60;;;5.60;;
24261;SDS011;12385;51.412;5.540;2024-01-15T14:29:09;12.43;;;6.40;;
24261;SDS011;12385;51.412;5.540;2024-01-15T14:31:35;8.48;;;4.90;;
24261;SDS011;12385;51.412;5.540;2024-01-15T14:34:00;11.00;;;3.42;;
24261;SDS011;12385;51.412;5.540;2024-01-15T14:36:28;9.75;;;3.60;;
24261;SDS011;12385;51.412;5.540;2024-01-15T14:38:53;11.00;;;4.03;;
24261;SDS011;12385;51.412;5.540;2024-01-15T14:41:19;23.83;;;12.82;;
24261;SDS011;12385;51.412;5.540;2024-01-15T14:43:45;9.88;;;4.15;;
24261;SDS011;12385;51.412;5.540;2024-01-15T14:46:11;9.18;;;3.70;;
24261;SDS011;12385;51.412;5.540;2024-01-15T14:48:37;11.10;;;3.00;;
24261;SDS011;12385;51.412;5.540;2024-01-15T14:51:02;10.15;;;2.72;;
24261;SDS011;12385;51.412;5.540;2024-01-15T14:53:28;11.50;;;2.75;;